createdAt,value
2023-04-12T00:00:42.726Z,14.01
2023-04-12T00:01:42.720Z,13.90
2023-04-12T00:02:43.024Z,13.80
2023-04-12T00:03:42.904Z,13.75
2023-04-12T00:04:42.986Z,13.77
2023-04-12T00:05:42.711Z,13.78
2023-04-12T00:06:42.687Z,13.83
2023-04-12T00:07:42.742Z,13.70
2023-04-12T00:08:42.659Z,13.84
2023-04-12T00:09:42.648Z,13.78
2023-04-12T00:10:42.639Z,13.78
2023-04-12T00:11:42.626Z,13.74
2023-04-12T00:12:42.611Z,13.67
2023-04-12T00:13:42.592Z,13.53
2023-04-12T00:14:42.585Z,13.58
2023-04-12T00:15:42.606Z,13.53
2023-04-12T00:16:42.573Z,13.37
2023-04-12T00:17:42.583Z,13.36
2023-04-12T00:18:42.555Z,13.35
2023-04-12T00:19:42.516Z,13.29
2023-04-12T00:20:42.500Z,13.17
2023-04-12T00:21:42.481Z,13.33
2023-04-12T00:22:42.540Z,13.22
2023-04-12T00:23:42.462Z,13.06
2023-04-12T00:24:42.443Z,13.00
2023-04-12T00:25:42.450Z,12.97
2023-04-12T00:26:42.416Z,13.00
2023-04-12T00:27:42.409Z,12.98
2023-04-12T00:28:42.387Z,12.98
2023-04-12T00:29:42.378Z,13.00
2023-04-12T00:30:42.370Z,12.84
2023-04-12T00:31:42.466Z,12.77
2023-04-12T00:32:42.392Z,12.73
2023-04-12T00:33:42.319Z,12.69
2023-04-12T00:34:42.355Z,12.73
2023-04-12T00:35:42.327Z,12.63
2023-04-12T00:36:42.276Z,12.66
2023-04-12T00:37:42.257Z,12.57
2023-04-12T00:38:42.265Z,12.63
2023-04-12T00:39:42.264Z,12.53
2023-04-12T00:40:42.271Z,12.47
2023-04-12T00:41:42.204Z,12.36
2023-04-12T00:42:42.194Z,12.31
2023-04-12T00:43:42.179Z,12.32
2023-04-12T00:44:42.165Z,12.30
2023-04-12T00:45:42.143Z,12.34
2023-04-12T00:46:42.160Z,12.32
2023-04-12T00:47:42.248Z,12.32
2023-04-12T00:48:42.121Z,12.26
2023-04-12T00:49:42.086Z,12.23
2023-04-12T00:50:42.093Z,12.22
2023-04-12T00:51:42.116Z,12.15
2023-04-12T00:52:42.068Z,12.18
2023-04-12T00:53:42.115Z,11.96
2023-04-12T00:54:42.049Z,12.07
2023-04-12T00:55:42.050Z,11.94
2023-04-12T00:56:42.040Z,12.03
2023-04-12T00:57:42.049Z,11.86
2023-04-12T00:58:42.044Z,11.93
2023-04-12T00:59:42.051Z,11.91
2023-04-12T01:00:42.090Z,11.81
2023-04-12T01:01:42.096Z,11.82
2023-04-12T01:02:42.186Z,11.74
2023-04-12T01:03:42.122Z,11.73
2023-04-12T01:04:41.997Z,11.74
2023-04-12T01:05:41.998Z,11.73
2023-04-12T01:06:41.985Z,11.75
2023-04-12T01:07:41.963Z,11.76
2023-04-12T01:08:41.960Z,11.64
2023-04-12T01:09:41.947Z,11.59
2023-04-12T01:10:41.945Z,11.71
2023-04-12T01:11:41.922Z,11.50
2023-04-12T01:12:41.906Z,11.48
2023-04-12T01:13:41.907Z,11.45
2023-04-12T01:14:41.911Z,11.45
2023-04-12T01:15:41.880Z,11.37
2023-04-12T01:16:41.968Z,11.40
2023-04-12T01:17:41.922Z,11.46
2023-04-12T01:18:41.843Z,11.39
2023-04-12T01:19:41.842Z,11.33
2023-04-12T01:20:41.822Z,11.22
2023-04-12T01:21:41.806Z,11.22
2023-04-12T01:22:41.794Z,11.25
2023-04-12T01:23:41.777Z,11.16
2023-04-12T01:24:41.752Z,11.21
2023-04-12T01:25:41.746Z,11.10
2023-04-12T01:26:41.749Z,11.07
2023-04-12T01:27:41.715Z,11.01
2023-04-12T01:28:41.686Z,11.04
2023-04-12T01:29:41.681Z,10.99
2023-04-12T01:30:41.660Z,10.96
2023-04-12T01:31:41.699Z,10.88
2023-04-12T01:32:41.661Z,10.88
2023-04-12T01:33:41.615Z,10.78
2023-04-12T01:34:41.625Z,10.70
2023-04-12T01:35:41.673Z,10.83
2023-04-12T01:36:41.625Z,10.69
2023-04-12T01:37:41.628Z,10.76
2023-04-12T01:38:41.630Z,10.69
2023-04-12T01:39:41.634Z,10.68
2023-04-12T01:40:41.635Z,10.67
2023-04-12T01:43:00.723Z,0.50
2023-04-12T01:44:00.728Z,0.50
2023-04-12T01:45:00.717Z,0.50
2023-04-12T01:46:00.690Z,0.50
2023-04-12T01:47:00.662Z,0.50
2023-04-12T01:48:00.692Z,0.50
2023-04-12T01:49:00.620Z,0.50
2023-04-12T01:50:00.627Z,0.50
2023-04-12T01:51:00.594Z,0.50
2023-04-12T01:52:00.586Z,0.50
2023-04-12T01:53:00.558Z,0.50
2023-04-12T01:54:00.552Z,0.50
2023-04-12T01:55:00.547Z,0.50
2023-04-12T01:56:00.536Z,0.50
2023-04-12T01:57:00.526Z,0.50
2023-04-12T01:58:00.512Z,0.50
2023-04-12T01:59:00.489Z,0.50
2023-04-12T02:00:00.468Z,0.50
2023-04-12T02:01:00.481Z,0.50
2023-04-12T02:02:00.481Z,0.50
2023-04-12T02:03:00.679Z,0.50
2023-04-12T02:04:00.968Z,0.51
2023-04-12T02:05:00.373Z,0.50
2023-04-12T02:06:00.356Z,0.51
2023-04-12T02:07:00.321Z,0.51
2023-04-12T02:08:00.309Z,0.51
2023-04-12T02:09:00.280Z,0.51
2023-04-12T02:10:00.255Z,0.50
2023-04-12T02:11:00.227Z,0.51
2023-04-12T02:12:00.210Z,0.51
2023-04-12T02:13:00.183Z,0.50
2023-04-12T02:14:00.190Z,0.51
2023-04-12T02:15:00.168Z,0.50
2023-04-12T02:16:00.153Z,0.50
2023-04-12T02:17:00.170Z,0.51
2023-04-12T02:18:00.130Z,0.50
2023-04-12T02:19:00.102Z,0.50
2023-04-12T02:20:00.082Z,0.50
2023-04-12T02:21:00.054Z,0.50
2023-04-12T02:22:00.047Z,0.50
2023-04-12T02:23:00.030Z,0.51
2023-04-12T02:24:00.010Z,0.50
2023-04-12T02:25:00.024Z,0.51
2023-04-12T02:25:59.998Z,0.51
2023-04-12T02:26:59.994Z,0.50
2023-04-12T02:27:59.974Z,0.51
2023-04-12T02:28:59.967Z,0.50
2023-04-12T02:29:59.966Z,0.50
2023-04-12T02:30:59.988Z,0.50
2023-04-12T02:31:59.951Z,0.50
2023-04-12T02:32:59.964Z,0.51
2023-04-12T02:33:59.917Z,0.51
2023-04-12T02:34:59.910Z,0.51
2023-04-12T02:35:59.937Z,0.51
2023-04-12T02:36:59.888Z,0.51
2023-04-12T02:37:59.888Z,0.51
2023-04-12T02:38:59.893Z,0.50
2023-04-12T02:39:59.861Z,0.51
2023-04-12T02:40:59.853Z,0.50
2023-04-12T02:41:59.848Z,0.50
2023-04-12T02:42:59.821Z,0.50
2023-04-12T02:43:59.819Z,0.50
2023-04-12T02:44:59.799Z,0.51
2023-04-12T02:45:59.816Z,0.50
2023-04-12T02:46:59.828Z,0.50
2023-04-12T02:47:59.903Z,0.50
2023-04-12T02:48:59.871Z,0.50
2023-04-12T02:49:59.920Z,0.51
2023-04-12T02:50:59.935Z,0.50
2023-04-12T02:51:59.934Z,0.50
2023-04-12T02:52:59.910Z,0.50
2023-04-12T02:53:59.910Z,0.50
2023-04-12T02:54:59.902Z,0.50
2023-04-12T02:55:59.891Z,0.51
2023-04-12T02:56:59.884Z,0.49
2023-04-12T02:57:59.872Z,0.50
2023-04-12T02:58:59.856Z,0.50
2023-04-12T02:59:59.874Z,0.50
2023-04-12T03:00:59.892Z,0.50
2023-04-12T03:01:59.897Z,0.50
2023-04-12T03:02:59.913Z,0.50
2023-04-12T03:04:00.213Z,0.50
2023-04-12T03:04:59.818Z,0.50
2023-04-12T03:05:59.796Z,0.50
2023-04-12T03:06:59.840Z,0.50
2023-04-12T03:07:59.899Z,0.50
2023-04-12T03:08:59.863Z,0.50
2023-04-12T03:09:59.898Z,0.50
2023-04-12T03:10:59.943Z,0.50
2023-04-12T03:12:00.006Z,0.50
2023-04-12T03:13:00.048Z,0.50
2023-04-12T03:14:00.170Z,0.50
2023-04-12T03:15:00.159Z,0.50
2023-04-12T03:16:00.301Z,0.50
2023-04-12T03:17:00.378Z,0.50
2023-04-12T03:18:00.394Z,0.50
2023-04-12T03:19:00.409Z,0.51
2023-04-12T03:20:00.481Z,0.50
2023-04-12T03:21:00.537Z,0.50
2023-04-12T03:22:00.614Z,0.51
2023-04-12T03:23:00.684Z,0.50
2023-04-12T03:24:00.730Z,0.51
2023-04-12T03:25:00.795Z,0.51
2023-04-12T03:26:00.910Z,0.51
2023-04-12T03:27:00.954Z,0.51
2023-04-12T03:28:00.993Z,0.51
2023-04-12T03:29:01.098Z,0.51
2023-04-12T03:30:01.162Z,0.50
2023-04-12T03:31:01.262Z,0.50
2023-04-12T03:32:01.341Z,0.51
2023-04-12T03:33:01.428Z,0.50
2023-04-12T03:34:01.439Z,0.50
2023-04-12T03:35:01.592Z,0.50
2023-04-12T03:36:01.662Z,0.51
2023-04-12T03:37:01.740Z,0.51
2023-04-12T03:38:01.802Z,0.51
2023-04-12T03:39:01.835Z,0.52
2023-04-12T03:40:02.028Z,0.51
2023-04-12T03:41:02.001Z,0.50
2023-04-12T03:42:02.064Z,0.51
2023-04-12T03:43:02.348Z,0.53
2023-04-12T03:44:02.269Z,0.52
2023-04-12T03:45:02.323Z,0.54
2023-04-12T03:46:02.455Z,0.54
2023-04-12T03:47:02.440Z,0.54
2023-04-12T03:48:02.669Z,0.56
2023-04-12T03:49:02.606Z,0.56
2023-04-12T03:50:10.153Z,0.55
2023-04-12T03:51:03.678Z,0.55
2023-04-12T03:52:02.702Z,0.55
2023-04-12T03:53:02.697Z,0.55
2023-04-12T03:54:02.764Z,0.54
2023-04-12T03:55:02.768Z,0.53
2023-04-12T03:56:02.787Z,0.53
2023-04-12T03:57:02.781Z,0.53
2023-04-12T03:58:02.791Z,0.53
2023-04-12T03:59:02.777Z,0.51
2023-04-12T04:00:02.867Z,0.53
2023-04-12T04:01:02.967Z,0.53
2023-04-12T04:02:03.006Z,0.51
2023-04-12T04:03:03.313Z,0.52
2023-04-12T04:04:03.625Z,0.52
2023-04-12T04:05:03.227Z,0.52
2023-04-12T04:06:03.296Z,0.51
2023-04-12T04:07:03.418Z,0.52
2023-04-12T04:08:03.432Z,0.50
2023-04-12T04:09:03.461Z,0.51
2023-04-12T04:10:03.494Z,0.51
2023-04-12T04:11:03.554Z,0.52
2023-04-12T04:12:03.611Z,0.52
2023-04-12T04:13:03.724Z,0.52
2023-04-12T04:14:03.616Z,0.52
2023-04-12T04:15:03.618Z,0.51
2023-04-12T04:16:03.726Z,0.50
2023-04-12T04:17:03.676Z,0.53
2023-04-12T04:18:03.736Z,0.54
2023-04-12T04:19:03.750Z,0.55
2023-04-12T04:20:03.745Z,0.54
2023-04-12T04:21:03.741Z,0.54
2023-04-12T04:22:03.735Z,0.54
2023-04-12T04:23:03.751Z,0.55
2023-04-12T04:24:03.776Z,0.54
2023-04-12T04:25:03.805Z,0.54
2023-04-12T04:26:03.809Z,0.55
2023-04-12T04:27:03.837Z,0.54
2023-04-12T04:28:03.822Z,0.57
2023-04-12T04:29:03.864Z,0.61
2023-04-12T04:30:03.898Z,0.63
2023-04-12T04:31:03.877Z,0.63
2023-04-12T04:32:04.008Z,0.64
2023-04-12T04:33:04.033Z,0.67
2023-04-12T04:34:03.913Z,0.71
2023-04-12T04:35:03.958Z,0.73
2023-04-12T04:36:04.058Z,0.78
2023-04-12T04:37:04.070Z,0.79
2023-04-12T04:38:04.141Z,0.85
2023-04-12T04:39:04.223Z,0.92
2023-04-12T04:40:04.277Z,0.95
2023-04-12T04:41:04.332Z,0.96
2023-04-12T04:42:04.396Z,0.98
2023-04-12T04:43:05.798Z,1.01
2023-04-12T04:44:04.494Z,1.02
2023-04-12T04:45:04.487Z,1.03
2023-04-12T04:46:04.490Z,1.06
2023-04-12T04:47:04.430Z,1.07
2023-04-12T04:48:04.464Z,1.11
2023-04-12T04:49:04.422Z,1.12
2023-04-12T04:50:04.425Z,1.12
2023-04-12T04:51:04.438Z,1.14
2023-04-12T04:52:04.425Z,1.16
2023-04-12T04:53:04.423Z,1.17
2023-04-12T04:54:04.410Z,1.19
2023-04-12T04:55:06.893Z,1.21
2023-04-12T04:56:04.400Z,1.24
2023-04-12T04:57:04.400Z,1.24
2023-04-12T04:58:04.412Z,1.28
2023-04-12T04:59:04.397Z,1.28
2023-04-12T05:00:04.391Z,1.19
2023-04-12T05:01:04.427Z,1.13
2023-04-12T05:02:04.474Z,1.05
2023-04-12T05:03:04.479Z,1.03
2023-04-12T05:04:04.488Z,1.03
2023-04-12T05:05:04.386Z,1.02
2023-04-12T05:06:04.398Z,0.99
2023-04-12T05:07:04.383Z,1.01
2023-04-12T05:08:04.396Z,0.96
2023-04-12T05:09:04.389Z,0.93
2023-04-12T05:10:04.394Z,0.87
2023-04-12T05:11:04.400Z,0.82
2023-04-12T05:12:04.410Z,0.80
2023-04-12T05:13:04.436Z,0.77
2023-04-12T05:14:04.444Z,0.74
2023-04-12T05:15:11.758Z,0.76
2023-04-12T05:16:05.462Z,0.75
2023-04-12T05:17:04.556Z,0.70
2023-04-12T05:18:04.524Z,0.69
2023-04-12T05:19:04.491Z,0.69
2023-04-12T05:20:04.476Z,0.68
2023-04-12T05:21:04.485Z,0.67
2023-04-12T05:22:04.494Z,0.65
2023-04-12T05:23:04.512Z,0.68
2023-04-12T05:24:04.574Z,0.66
2023-04-12T05:25:04.537Z,0.71
2023-04-12T05:26:04.548Z,0.76
2023-04-12T05:27:04.549Z,0.86
2023-04-12T05:28:04.563Z,0.85
2023-04-12T05:29:04.568Z,0.89
2023-04-12T05:30:04.574Z,0.89
2023-04-12T05:31:04.653Z,0.90
2023-04-12T05:32:04.612Z,0.98
2023-04-12T05:33:04.651Z,0.99
2023-04-12T05:34:04.623Z,1.01
2023-04-12T05:35:04.707Z,1.07
2023-04-12T05:36:04.749Z,1.20
2023-04-12T05:37:04.655Z,1.39
2023-04-12T05:38:04.678Z,1.49
2023-04-12T05:39:04.686Z,1.53
2023-04-12T05:40:04.790Z,1.55
2023-04-12T05:41:04.704Z,1.52
2023-04-12T05:42:04.714Z,1.45
2023-04-12T05:43:04.742Z,1.46
2023-04-12T05:44:04.748Z,1.45
2023-04-12T05:45:04.764Z,1.45
2023-04-12T05:46:04.794Z,1.44
2023-04-12T05:47:04.809Z,1.30
2023-04-12T05:48:04.869Z,1.23
2023-04-12T05:49:04.820Z,1.18
2023-04-12T05:50:06.795Z,1.13
2023-04-12T05:51:04.836Z,1.09
2023-04-12T05:52:04.849Z,1.10
2023-04-12T05:53:04.871Z,1.11
2023-04-12T05:54:04.874Z,1.15
2023-04-12T05:55:04.892Z,1.04
2023-04-12T05:56:04.917Z,1.06
2023-04-12T05:57:04.960Z,1.08
2023-04-12T05:58:04.967Z,0.97
2023-04-12T05:59:04.988Z,0.77
2023-04-12T06:00:05.012Z,0.70
2023-04-12T06:01:05.052Z,0.37
2023-04-12T06:02:05.102Z,0.34
2023-04-12T06:03:05.235Z,0.46
2023-04-12T06:04:05.257Z,0.53
2023-04-12T06:05:05.392Z,0.49
2023-04-12T06:06:05.169Z,0.49
2023-04-12T06:07:05.198Z,0.58
2023-04-12T06:08:05.218Z,0.75
2023-04-12T06:09:05.229Z,0.98
2023-04-12T06:10:05.275Z,1.13
2023-04-12T06:11:05.262Z,1.20
2023-04-12T06:12:05.282Z,1.33
2023-04-12T06:13:05.314Z,1.55
2023-04-12T06:14:05.312Z,1.69
2023-04-12T06:15:05.326Z,1.80
2023-04-12T06:16:05.392Z,1.99
2023-04-12T06:17:05.349Z,2.14
2023-04-12T06:18:05.424Z,2.28
2023-04-12T06:19:05.362Z,2.38
2023-04-12T06:20:05.382Z,2.50
2023-04-12T06:21:05.401Z,2.70
2023-04-12T06:22:05.456Z,2.87
2023-04-12T06:23:05.522Z,2.99
2023-04-12T06:24:05.597Z,3.08
2023-04-12T06:25:05.642Z,3.24
2023-04-12T06:26:05.709Z,3.58
2023-04-12T06:27:05.779Z,3.78
2023-04-12T06:28:05.835Z,3.33
2023-04-12T06:29:05.909Z,3.73
2023-04-12T06:30:05.969Z,3.91
2023-04-12T06:31:06.029Z,4.20
2023-04-12T06:32:05.994Z,4.22
2023-04-12T06:33:06.028Z,4.27
2023-04-12T06:34:05.990Z,4.37
2023-04-12T06:35:05.994Z,4.31
2023-04-12T06:36:05.989Z,4.70
2023-04-12T06:37:05.973Z,4.62
2023-04-12T06:38:06.095Z,4.36
2023-04-12T06:39:05.963Z,4.59
2023-04-12T06:40:05.970Z,4.41
2023-04-12T06:41:06.004Z,4.45
2023-04-12T06:42:05.972Z,5.01
2023-04-12T06:43:06.005Z,5.19
2023-04-12T06:44:06.109Z,5.19
2023-04-12T06:45:05.990Z,4.86
2023-04-12T06:46:05.974Z,4.75
2023-04-12T06:47:06.071Z,3.80
2023-04-12T06:48:05.994Z,3.33
2023-04-12T06:49:05.951Z,3.08
2023-04-12T06:50:05.941Z,3.23
2023-04-12T06:51:05.930Z,3.41
2023-04-12T06:52:05.915Z,3.22
2023-04-12T06:53:05.906Z,2.68
2023-04-12T06:54:06.137Z,2.73
2023-04-12T06:55:05.893Z,2.72
2023-04-12T06:56:05.871Z,2.83
2023-04-12T06:57:05.861Z,2.70
2023-04-12T06:58:05.859Z,2.61
2023-04-12T06:59:05.844Z,2.69
2023-04-12T07:00:06.033Z,2.69
2023-04-12T07:01:05.847Z,2.67
2023-04-12T07:02:05.831Z,2.54
2023-04-12T07:03:05.891Z,2.24
2023-04-12T07:04:05.839Z,2.12
2023-04-12T07:05:05.767Z,2.17
2023-04-12T07:06:17.675Z,1.91
2023-04-12T07:07:06.735Z,1.91
2023-04-12T07:08:05.732Z,1.92
2023-04-12T07:09:05.732Z,1.98
2023-04-12T07:10:05.713Z,1.98
2023-04-12T07:11:19.778Z,1.98
2023-04-12T07:12:06.690Z,1.92
2023-04-12T07:13:05.671Z,1.75
2023-04-12T07:14:05.654Z,1.79
2023-04-12T07:15:05.650Z,1.65
2023-04-12T07:16:05.796Z,1.63
2023-04-12T07:17:05.624Z,1.58
2023-04-12T07:18:05.656Z,1.66
2023-04-12T07:19:05.596Z,1.38
2023-04-12T07:20:05.589Z,1.34
2023-04-12T07:21:05.566Z,1.32
2023-04-12T07:22:05.547Z,1.59
2023-04-12T07:23:05.542Z,1.60
2023-04-12T07:24:05.527Z,1.60
2023-04-12T07:25:05.525Z,1.63
2023-04-12T07:26:05.549Z,1.66
2023-04-12T07:27:05.498Z,1.80
2023-04-12T07:28:06.998Z,1.69
2023-04-12T07:29:05.477Z,1.79
2023-04-12T07:30:05.434Z,1.86
2023-04-12T07:31:05.421Z,1.68
2023-04-12T07:32:05.549Z,1.55
2023-04-12T07:33:18.491Z,1.65
2023-04-12T07:34:06.482Z,1.64
2023-04-12T07:35:05.337Z,1.65
2023-04-12T07:36:05.339Z,1.66
2023-04-12T07:37:05.299Z,1.85
2023-04-12T07:38:05.256Z,1.97
2023-04-12T07:39:05.251Z,2.07
2023-04-12T07:40:05.241Z,1.84
2023-04-12T07:41:05.195Z,1.15
2023-04-12T07:42:05.186Z,1.11
2023-04-12T07:43:05.155Z,1.35
2023-04-12T07:44:05.137Z,1.35
2023-04-12T07:45:05.110Z,1.43
2023-04-12T07:46:05.182Z,1.31
2023-04-12T07:47:05.066Z,1.28
2023-04-12T07:48:05.086Z,1.20
2023-04-12T07:49:05.035Z,1.17
2023-04-12T07:50:05.002Z,1.15
2023-04-12T07:51:04.972Z,1.27
2023-04-12T07:52:04.957Z,1.32
2023-04-12T07:53:04.942Z,1.46
2023-04-12T07:54:04.965Z,1.77
2023-04-12T07:55:04.921Z,1.83
2023-04-12T07:56:04.945Z,1.97
2023-04-12T07:57:04.887Z,1.92
2023-04-12T07:58:04.840Z,1.64
2023-04-12T07:59:04.792Z,1.68
2023-04-12T08:00:04.779Z,1.27
2023-04-12T08:01:04.753Z,1.11
2023-04-12T08:02:04.800Z,1.24
2023-04-12T08:03:04.948Z,1.27
2023-04-12T08:04:04.872Z,1.21
2023-04-12T08:05:04.653Z,0.88
2023-04-12T08:06:04.681Z,1.01
2023-04-12T08:07:04.607Z,0.99
2023-04-12T08:08:04.602Z,1.01
2023-04-12T08:09:04.586Z,0.92
2023-04-12T08:10:04.570Z,0.92
2023-04-12T08:11:04.559Z,0.71
2023-04-12T08:12:04.591Z,0.63
2023-04-12T08:13:04.556Z,0.62
2023-04-12T08:14:04.441Z,0.79
2023-04-12T08:15:04.417Z,0.88
2023-04-12T08:16:04.443Z,0.89
2023-04-12T08:17:04.385Z,0.73
2023-04-12T08:18:04.494Z,0.42
2023-04-12T08:19:04.312Z,0.43
2023-04-12T08:20:04.307Z,0.37
2023-04-12T08:21:04.279Z,0.35
2023-04-12T08:22:04.250Z,0.48
2023-04-12T08:23:04.229Z,0.82
2023-04-12T08:24:04.205Z,0.42
2023-04-12T08:25:04.199Z,0.45
2023-04-12T08:26:04.206Z,0.34
2023-04-12T08:27:04.140Z,0.53
2023-04-12T08:28:04.170Z,0.34
2023-04-12T08:29:04.100Z,0.34
2023-04-12T08:30:04.093Z,0.34
2023-04-12T08:31:04.218Z,0.37
2023-04-12T08:32:04.066Z,0.44
2023-04-12T08:33:04.155Z,0.48
2023-04-12T08:34:04.026Z,0.46
2023-04-12T08:35:04.039Z,0.42
2023-04-12T08:36:04.036Z,0.50
2023-04-12T08:37:03.963Z,0.48
2023-04-12T08:38:03.955Z,0.48
2023-04-12T08:39:03.941Z,0.51
2023-04-12T08:40:03.937Z,0.55
2023-04-12T08:41:03.895Z,0.53
2023-04-12T08:42:03.897Z,0.55
2023-04-12T08:43:03.913Z,0.50
2023-04-12T08:44:03.883Z,0.50
2023-04-12T08:45:03.861Z,0.55
2023-04-12T08:46:03.878Z,0.54
2023-04-12T08:47:03.852Z,0.53
2023-04-12T08:48:03.844Z,0.55
2023-04-12T08:49:03.833Z,0.65
2023-04-12T08:50:03.825Z,0.79
2023-04-12T08:51:03.805Z,0.95
2023-04-12T08:52:03.819Z,1.25
2023-04-12T08:53:03.798Z,1.69
2023-04-12T08:54:03.780Z,2.10
2023-04-12T08:55:03.796Z,2.84
2023-04-12T08:56:03.777Z,6.94
2023-04-12T08:57:03.750Z,8.13
2023-04-12T08:58:03.740Z,8.14
2023-04-12T08:59:03.725Z,8.26
2023-04-12T09:00:03.767Z,8.79
2023-04-12T09:01:03.748Z,10.46
2023-04-12T09:02:03.797Z,13.62
2023-04-12T09:03:03.901Z,16.76
2023-04-12T09:04:04.077Z,18.72
2023-04-12T09:05:03.742Z,20.23
2023-04-12T09:06:03.605Z,20.05
2023-04-12T09:07:03.589Z,22.32
2023-04-12T09:08:03.649Z,23.48
2023-04-12T09:09:03.562Z,25.67
2023-04-12T09:10:03.538Z,26.93
2023-04-12T09:11:03.516Z,32.59
2023-04-12T09:12:03.466Z,32.69
2023-04-12T09:13:03.445Z,33.65
2023-04-12T09:14:03.554Z,36.24
2023-04-12T09:15:03.403Z,40.97
2023-04-12T09:16:03.362Z,96.06
2023-04-12T09:17:03.518Z,218.74
2023-04-12T09:18:03.345Z,981.64
2023-04-12T09:19:03.290Z,679.27
2023-04-12T09:20:03.291Z,341.97
2023-04-12T09:21:03.233Z,201.90
2023-04-12T09:22:03.231Z,106.99
2023-04-12T09:23:03.185Z,70.73
2023-04-12T09:24:03.172Z,42.05
2023-04-12T09:25:03.385Z,41.27
2023-04-12T09:26:03.157Z,34.91
2023-04-12T09:27:03.099Z,20.72
2023-04-12T09:28:03.087Z,19.21
2023-04-12T09:29:03.061Z,21.53
2023-04-12T09:30:03.080Z,16.66
2023-04-12T09:31:03.125Z,15.33
2023-04-12T09:32:03.179Z,15.78
2023-04-12T09:33:03.140Z,13.33
2023-04-12T09:34:03.139Z,14.20
2023-04-12T09:35:03.115Z,9.50
2023-04-12T09:36:03.208Z,8.15
2023-04-12T09:37:03.138Z,5.28
2023-04-12T09:38:03.173Z,6.52
2023-04-12T09:39:03.172Z,7.36
2023-04-12T09:40:03.274Z,5.69
2023-04-12T09:41:03.262Z,6.18
2023-04-12T09:42:03.315Z,7.78
2023-04-12T09:43:03.316Z,8.01
2023-04-12T09:44:03.360Z,7.21
2023-04-12T09:45:03.384Z,8.21
2023-04-12T09:46:03.424Z,7.39
2023-04-12T09:47:03.429Z,5.25
2023-04-12T09:48:03.561Z,3.25
2023-04-12T09:49:03.430Z,3.25
2023-04-12T09:50:03.408Z,3.03
2023-04-12T09:51:03.389Z,2.73
2023-04-12T09:52:03.366Z,2.36
2023-04-12T09:53:03.356Z,2.29
2023-04-12T09:54:03.374Z,2.22
2023-04-12T09:55:03.288Z,2.14
2023-04-12T09:56:03.401Z,2.10
2023-04-12T09:57:03.251Z,2.15
2023-04-12T09:58:03.227Z,2.18
2023-04-12T09:59:03.272Z,2.18
2023-04-12T10:00:03.183Z,2.56
2023-04-12T10:01:03.207Z,2.44
2023-04-12T10:02:03.207Z,2.02
2023-04-12T10:03:03.361Z,2.02
2023-04-12T10:04:03.619Z,2.45
2023-04-12T10:05:03.327Z,2.17
2023-04-12T10:06:03.114Z,2.01
2023-04-12T10:07:03.092Z,1.87
2023-04-12T10:08:03.067Z,1.79
2023-04-12T10:09:03.016Z,1.72
2023-04-12T10:10:03.006Z,1.69
2023-04-12T10:11:02.985Z,1.75
2023-04-12T10:12:03.063Z,2.16
2023-04-12T10:13:02.958Z,1.62
2023-04-12T10:14:02.979Z,1.59
2023-04-12T10:15:02.920Z,1.47
2023-04-12T10:16:02.965Z,1.33
2023-04-12T10:17:02.917Z,1.35
2023-04-12T10:18:02.961Z,1.25
2023-04-12T10:19:02.863Z,1.20
2023-04-12T10:20:02.854Z,1.24
2023-04-12T10:21:02.804Z,1.23
2023-04-12T10:22:02.820Z,1.13
2023-04-12T10:23:02.822Z,1.22
2023-04-12T10:24:02.751Z,1.23
2023-04-12T10:25:02.765Z,1.18
2023-04-12T10:26:02.769Z,1.17
2023-04-12T10:27:02.744Z,1.19
2023-04-12T10:28:02.748Z,1.13
2023-04-12T10:29:02.722Z,1.06
2023-04-12T10:30:02.741Z,0.98
2023-04-12T10:31:02.756Z,0.89
2023-04-12T10:32:02.811Z,0.79
2023-04-12T10:33:02.907Z,0.87
2023-04-12T10:34:02.758Z,0.90
2023-04-12T10:35:02.759Z,0.90
2023-04-12T10:36:02.844Z,0.91
2023-04-12T10:37:02.828Z,0.75
2023-04-12T10:38:02.804Z,0.67
2023-04-12T10:39:02.840Z,0.62
2023-04-12T10:40:02.852Z,0.67
2023-04-12T10:41:02.846Z,0.70
2023-04-12T10:42:02.871Z,0.76
2023-04-12T10:43:02.900Z,0.82
2023-04-12T10:44:02.900Z,0.89
2023-04-12T10:45:02.915Z,0.87
2023-04-12T10:46:02.912Z,0.90
2023-04-12T10:47:02.995Z,0.88
2023-04-12T10:48:02.982Z,1.02
2023-04-12T10:49:02.949Z,1.02
2023-04-12T10:50:02.961Z,0.93
2023-04-12T10:51:02.993Z,0.89
2023-04-12T10:52:03.014Z,0.87
2023-04-12T10:53:03.044Z,0.86
2023-04-12T10:54:03.015Z,0.95
2023-04-12T10:55:03.050Z,0.84
2023-04-12T10:56:03.079Z,0.90
2023-04-12T10:57:03.071Z,0.93
2023-04-12T10:58:03.030Z,0.74
2023-04-12T10:59:03.512Z,0.76
2023-04-12T11:00:03.082Z,0.73
2023-04-12T11:01:03.135Z,0.73
2023-04-12T11:02:03.210Z,0.67
2023-04-12T11:03:03.187Z,0.64
2023-04-12T11:04:03.301Z,0.64
2023-04-12T11:05:03.165Z,0.66
2023-04-12T11:06:16.035Z,0.65
2023-04-12T11:07:04.071Z,0.64
2023-04-12T11:08:03.019Z,0.65
2023-04-12T11:09:02.978Z,0.67
2023-04-12T11:10:02.975Z,0.73
2023-04-12T11:11:02.945Z,0.88
2023-04-12T11:13:22.018Z,0.50
2023-04-12T11:14:21.986Z,0.50
2023-04-12T11:15:22.046Z,0.50
2023-04-12T11:16:22.022Z,0.50
2023-04-12T11:17:21.986Z,0.50
2023-04-12T11:18:22.030Z,0.50
2023-04-12T11:19:21.878Z,0.51
2023-04-12T11:20:21.860Z,0.52
2023-04-12T11:21:21.817Z,0.50
2023-04-12T11:22:21.820Z,0.51
2023-04-12T11:23:21.771Z,0.49
2023-04-12T11:24:21.738Z,0.50
2023-04-12T11:25:21.706Z,0.55
2023-04-12T11:26:21.724Z,0.58
2023-04-12T11:27:21.678Z,0.56
2023-04-12T11:28:28.663Z,0.62
2023-04-12T11:29:22.599Z,0.62
2023-04-12T11:30:21.583Z,0.63
2023-04-12T11:31:21.620Z,0.65
2023-04-12T11:32:21.631Z,0.69
2023-04-12T11:33:21.522Z,0.72
2023-04-12T11:34:21.521Z,0.83
2023-04-12T11:35:21.486Z,0.83
2023-04-12T11:36:21.495Z,0.91
2023-04-12T11:37:21.446Z,0.95
2023-04-12T11:38:21.437Z,1.06
2023-04-12T11:39:21.415Z,1.10
2023-04-12T11:40:21.385Z,1.10
2023-04-12T11:41:21.370Z,1.27
2023-04-12T11:42:21.387Z,1.23
2023-04-12T11:43:21.346Z,0.78
2023-04-12T11:44:21.305Z,0.81
2023-04-12T11:45:21.298Z,0.68
2023-04-12T11:46:21.345Z,0.68
2023-04-12T11:47:21.273Z,0.74
2023-04-12T11:48:21.233Z,1.05
2023-04-12T11:49:21.213Z,1.03
2023-04-12T11:50:21.207Z,1.51
2023-04-12T11:51:21.189Z,1.83
2023-04-12T11:52:21.131Z,2.03
2023-04-12T11:53:21.099Z,2.25
2023-04-12T11:54:21.070Z,2.42
2023-04-12T11:55:21.055Z,2.61
2023-04-12T11:56:21.031Z,2.67
2023-04-12T11:57:21.020Z,2.90
2023-04-12T11:58:20.989Z,3.16
2023-04-12T11:59:20.956Z,3.46
2023-04-12T12:00:20.940Z,3.86
2023-04-12T12:01:20.918Z,4.48
2023-04-12T12:02:23.921Z,4.95
2023-04-12T12:03:21.164Z,5.96
2023-04-12T12:04:21.044Z,6.54
2023-04-12T12:05:21.018Z,7.40
2023-04-12T12:06:21.054Z,8.30
2023-04-12T12:07:21.494Z,8.75
2023-04-12T12:08:20.753Z,9.73
2023-04-12T12:09:20.734Z,10.07
2023-04-12T12:10:37.756Z,10.50
2023-04-12T12:11:21.702Z,10.55
2023-04-12T12:12:20.663Z,10.76
2023-04-12T12:13:20.626Z,11.09
2023-04-12T12:14:20.600Z,12.15
2023-04-12T12:15:20.590Z,13.63
2023-04-12T12:16:20.608Z,13.15
2023-04-12T12:17:20.589Z,13.46
2023-04-12T12:18:20.502Z,13.89
2023-04-12T12:19:20.495Z,14.18
2023-04-12T12:20:20.444Z,14.98
2023-04-12T12:21:20.433Z,15.00
2023-04-12T12:22:20.398Z,15.02
2023-04-12T12:23:20.362Z,13.67
2023-04-12T12:24:20.347Z,13.26
2023-04-12T12:25:20.329Z,12.66
2023-04-12T12:26:20.336Z,12.60
2023-04-12T12:27:20.313Z,13.73
2023-04-12T12:28:20.303Z,13.67
2023-04-12T12:29:20.259Z,14.35
2023-04-12T12:30:20.237Z,14.34
2023-04-12T12:31:20.327Z,13.83
2023-04-12T12:32:20.196Z,14.16
2023-04-12T12:33:21.105Z,14.57
2023-04-12T12:34:20.170Z,14.62
2023-04-12T12:35:20.133Z,14.74
2023-04-12T12:36:20.122Z,15.64
2023-04-12T12:37:20.095Z,13.22
2023-04-12T12:38:20.071Z,13.47
2023-04-12T12:39:20.062Z,8.37
2023-04-12T12:40:20.037Z,4.89
2023-04-12T12:41:20.050Z,3.88
2023-04-12T12:42:20.007Z,5.36
2023-04-12T12:43:20.026Z,3.51
2023-04-12T12:44:19.975Z,3.60
2023-04-12T12:45:19.951Z,5.24
2023-04-12T12:46:20.139Z,2.59
2023-04-12T12:47:19.984Z,2.06
2023-04-12T12:48:20.073Z,1.96
2023-04-12T12:49:19.909Z,1.74
2023-04-12T12:50:20.612Z,1.58
2023-04-12T12:51:19.885Z,1.54
2023-04-12T12:52:19.861Z,1.81
2023-04-12T12:53:20.963Z,1.58
2023-04-12T12:54:36.117Z,1.65
2023-04-12T12:55:21.040Z,1.26
2023-04-12T12:56:20.013Z,1.37
2023-04-12T12:57:19.996Z,1.43
2023-04-12T12:58:19.968Z,1.71
2023-04-12T12:59:19.949Z,1.66
2023-04-12T13:00:19.957Z,1.69
2023-04-12T13:01:20.091Z,1.71
2023-04-12T13:02:20.131Z,1.91
2023-04-12T13:03:20.201Z,1.77
2023-04-12T13:04:19.898Z,1.70
2023-04-12T13:05:19.865Z,1.84
2023-04-12T13:06:19.802Z,1.67
2023-04-12T13:07:19.780Z,1.66
2023-04-12T13:08:19.767Z,1.40
2023-04-12T13:09:19.743Z,1.66
2023-04-12T13:10:19.733Z,1.66
2023-04-12T13:11:19.713Z,1.69
2023-04-12T13:12:19.697Z,1.79
2023-04-12T13:13:19.673Z,1.57
2023-04-12T13:14:19.655Z,1.41
2023-04-12T13:15:23.686Z,1.77